This is the latest recevied weather packets stored in our database for station/object KC9Q. If no packets are shown the sender has not sent any weather packets the latest 10 day(s).
| Time | Temp. | Humidity | Pressure | Rain* | Wind** | Luminosity | Snow |
|---|---|---|---|---|---|---|---|
| 1777679402 | 16.67° C | 41% | 1015.4 hPa | 0 mm | - | 36 W/m² | - |
| 1777679098 | 16.67° C | 39% | 1015.3 hPa | 0 mm | - | 37 W/m² | - |
| 1777678797 | 16.67° C | 38% | 1015 hPa | 0 mm | - | 36 W/m² | - |
| 1777678494 | 16.67° C | 39% | 1015 hPa | 0 mm | - | 37 W/m² | - |
| 1777678190 | 16.67° C | 38% | 1014.9 hPa | 0 mm | - | 44 W/m² | - |
| 1777677887 | 16.67° C | 38% | 1014.9 hPa | 0 mm | - | 45 W/m² | - |
| 1777677584 | 16.67° C | 39% | 1015.1 hPa | 0 mm | - | 46 W/m² | - |
| 1777677283 | 16.67° C | 39% | 1015.2 hPa | 0 mm | - | 56 W/m² | - |
| 1777676980 | 16.67° C | 38% | 1015.1 hPa | 0 mm | - | 62 W/m² | - |
| 1777676680 | 16.67° C | 37% | 1014.8 hPa | 0 mm | - | 60 W/m² | - |
| 1777676376 | 16.67° C | 38% | 1015 hPa | 0 mm | - | 67 W/m² | - |
| 1777676074 | 17.22° C | 38% | 1015 hPa | 0 mm | - | 85 W/m² | - |
| 1777675770 | 17.22° C | 37% | 1015 hPa | 0 mm | - | 110 W/m² | - |
| 1777675467 | 17.22° C | 38% | 1014.6 hPa | 0 mm | - | 75 W/m² | - |
| 1777675164 | 16.67° C | 37% | 1014.8 hPa | 0 mm | - | 82 W/m² | - |
| 1777674860 | 17.22° C | 38% | 1014.6 hPa | 0 mm | - | 91 W/m² | - |
| 1777674556 | 17.22° C | 38% | 1014.4 hPa | 0 mm | - | 89 W/m² | - |
| 1777674255 | 17.22° C | 36% | 1014.4 hPa | 0 mm | - | 69 W/m² | - |
| 1777673950 | 17.22° C | 37% | 1014.3 hPa | 0 mm | - | 62 W/m² | - |
| 1777673647 | 17.22° C | 35% | 1014.4 hPa | 0 mm | - | 61 W/m² | - |
| 1777673345 | 17.22° C | 36% | 1014.3 hPa | 0 mm | - | 62 W/m² | - |
| 1777673042 | 17.22° C | 38% | 1014.5 hPa | 0 mm | - | 73 W/m² | - |
| 1777672738 | 17.78° C | 37% | 1014.4 hPa | 0 mm | - | 64 W/m² | - |
| 1777672435 | 17.78° C | 36% | 1014.4 hPa | 0 mm | - | 66 W/m² | - |
| 1777672130 | 17.78° C | 33% | 1014.7 hPa | 0 mm | - | 129 W/m² | - |
* Rain latest hour (hover to see other rain measurements)
** Current wind speed in m/s (hover to see current wind gust speed)